Time;durP1;ratioP1;P1;durP2;ratioP2;P2;SDS_P1;SDS_P2;PMS_P1;PMS_P2;Temp;Humidity;BMP_temperature;BMP_pressure;BME280_temperature;BME280_humidity;BME280_pressure;Samples;Min_cycle;Max_cycle;Signal;HPM_P1;HPM_P2
2022/07/01 00:00:57;;;;;;;7.30;6.53;;;;;;;23.68;59.95;93088.56;4727120;30;20051;-96
2022/07/01 00:03:22;;;;;;;7.20;6.38;;;;;;;23.68;59.83;93090.56;4739294;30;20518;-96
2022/07/01 00:05:48;;;;;;;8.13;6.97;;;;;;;23.68;60.04;93085.78;4728725;30;20051;-96
2022/07/01 00:08:13;;;;;;;7.18;6.47;;;;;;;23.66;60.02;93077.31;4740092;30;20047;-96
2022/07/01 00:10:39;;;;;;;8.70;6.80;;;;;;;23.66;60.08;93071.81;4738816;30;20051;-96
2022/07/01 00:13:06;;;;;;;8.38;6.60;;;;;;;23.66;60.16;93080.09;4731731;29;20091;-96
2022/07/01 00:15:32;;;;;;;9.25;6.72;;;;;;;23.65;60.14;93070.34;4754459;30;20115;-96
2022/07/01 00:17:57;;;;;;;8.18;6.90;;;;;;;23.66;59.91;93076.59;4750502;30;20549;-96
2022/07/01 00:20:23;;;;;;;8.38;6.65;;;;;;;23.66;60.14;93080.09;4732697;30;20047;-96
2022/07/01 00:22:48;;;;;;;7.97;6.40;;;;;;;23.65;59.97;93078.63;4755896;30;20078;-96
2022/07/01 00:25:14;;;;;;;8.60;7.05;;;;;;;23.65;59.79;93075.84;4752377;29;20081;-96
2022/07/01 00:27:39;;;;;;;8.00;6.40;;;;;;;23.63;60.13;93063.91;4744747;30;20079;-95
2022/07/01 00:30:06;;;;;;;7.85;6.50;;;;;;;23.63;59.87;93053.59;4756936;29;20512;-96
2022/07/01 00:32:32;;;;;;;7.68;6.03;;;;;;;23.65;59.95;93036.47;4750512;30;20055;-95
2022/07/01 00:34:57;;;;;;;8.23;6.47;;;;;;;23.64;59.89;93040.53;4759215;30;20086;-96
2022/07/01 00:37:23;;;;;;;7.90;6.70;;;;;;;23.62;59.98;93046.59;4761817;30;20566;-96
2022/07/01 00:39:49;;;;;;;6.55;5.63;;;;;;;23.63;59.94;93055.63;4754885;29;20550;-95
2022/07/01 00:42:17;;;;;;;7.43;6.22;;;;;;;23.61;59.87;93056.16;4752969;29;20040;-96
2022/07/01 00:44:42;;;;;;;9.48;6.15;;;;;;;23.63;59.71;93056.34;4751095;30;20052;-96
2022/07/01 00:47:10;;;;;;;7.75;6.32;;;;;;;23.61;59.85;93058.19;4740302;29;20089;-96
2022/07/01 00:49:35;;;;;;;5.90;5.30;;;;;;;23.62;59.99;93054.88;4738631;30;20073;-96
2022/07/01 00:52:01;;;;;;;6.38;5.57;;;;;;;23.61;60.06;93058.94;4736919;29;20160;-96
2022/07/01 00:54:27;;;;;;;5.80;5.20;;;;;;;23.61;59.55;93049.91;4754540;29;20089;-95
2022/07/01 00:56:53;;;;;;;6.72;5.80;;;;;;;23.61;60.08;93056.16;4723288;30;20050;-96
2022/07/01 00:59:18;;;;;;;7.53;5.80;;;;;;;23.61;59.76;93069.97;4691321;30;20592;-96
2022/07/01 01:01:44;;;;;;;7.53;6.18;;;;;;;23.61;60.19;93067.22;4676020;30;20918;-95
2022/07/01 01:04:09;;;;;;;7.40;6.53;;;;;;;23.60;59.76;93081.59;4687537;30;20052;-95
2022/07/01 01:06:37;;;;;;;8.43;6.07;;;;;;;23.59;60.17;93078.09;4690233;30;20064;-95
2022/07/01 01:09:02;;;;;;;6.03;5.15;;;;;;;23.60;59.82;93065.03;4675905;30;20056;-96
2022/07/01 01:11:28;;;;;;;7.45;6.18;;;;;;;23.60;59.94;93076.78;4687504;30;20556;-96
2022/07/01 01:13:54;;;;;;;7.50;5.32;;;;;;;23.61;59.85;93077.50;4679325;30;20052;-96
2022/07/01 01:16:19;;;;;;;7.28;6.40;;;;;;;23.60;59.69;93078.81;4672855;30;20048;-96
2022/07/01 01:18:45;;;;;;;7.95;5.53;;;;;;;23.60;60.01;93089.88;4654410;30;20065;-96
2022/07/01 01:21:10;;;;;;;6.70;5.63;;;;;;;23.60;60.01;93089.88;4653533;30;20064;-96
2022/07/01 01:23:39;;;;;;;7.38;6.05;;;;;;;23.58;59.88;93082.88;4674957;30;20850;-96
2022/07/01 01:26:18;;;;;;;6.97;5.28;;;;;;;23.57;60.06;93075.16;4671507;30;20756;-96
2022/07/01 01:28:43;;;;;;;6.32;5.38;;;;;;;23.58;59.49;93076.63;4705834;30;20044;-96
2022/07/01 01:31:09;;;;;;;6.10;5.50;;;;;;;23.58;60.06;93087.66;4752293;29;20361;-96
2022/07/01 01:33:36;;;;;;;6.53;5.47;;;;;;;23.57;60.10;93083.41;4756801;30;20122;-96
2022/07/01 01:36:03;;;;;;;6.53;5.47;;;;;;;23.57;59.75;93083.41;4742568;30;20077;-96
2022/07/01 01:38:29;;;;;;;7.15;5.82;;;;;;;23.57;59.95;93075.88;4753746;30;20051;-96
2022/07/01 01:40:55;;;;;;;6.20;5.47;;;;;;;23.57;60.20;93081.41;4756016;30;20063;-96
2022/07/01 01:43:24;;;;;;;6.13;5.53;;;;;;;23.57;60.01;93077.91;4748271;29;20302;-95
2022/07/01 01:45:50;;;;;;;6.30;5.28;;;;;;;23.53;59.87;93081.03;4729278;29;20213;-96
2022/07/01 01:48:16;;;;;;;6.28;5.32;;;;;;;23.57;60.03;93083.41;4704602;29;20058;-96
2022/07/01 01:50:48;;;;;;;6.25;5.25;;;;;;;23.55;59.73;93081.22;4724042;30;20299;-96
2022/07/01 01:53:17;;;;;;;7.05;5.57;;;;;;;23.55;59.85;93077.72;4719172;29;20060;-95
2022/07/01 01:55:42;;;;;;;5.50;4.97;;;;;;;23.55;59.70;93074.97;4711438;30;20463;-96
2022/07/01 01:58:09;;;;;;;5.78;5.18;;;;;;;23.55;59.71;93072.19;4745507;30;20108;-96
2022/07/01 02:00:37;;;;;;;5.68;5.07;;;;;;;23.54;59.60;93068.69;4747929;30;20364;-96
2022/07/01 02:03:03;;;;;;;6.40;5.20;;;;;;;23.55;59.82;93061.91;4737346;29;20154;-96
2022/07/01 02:05:29;;;;;;;7.82;5.38;;;;;;;23.54;59.54;93071.47;4739436;30;20707;-96
2022/07/01 02:07:55;;;;;;;6.95;5.32;;;;;;;23.55;59.60;93063.91;4736502;29;20048;-96
2022/07/01 02:10:20;;;;;;;6.22;4.88;;;;;;;23.53;59.78;93070.00;4724041;29;20047;-95
2022/07/01 02:12:47;;;;;;;6.47;5.20;;;;;;;23.54;59.84;93070.72;4726040;30;20188;-95
2022/07/01 02:15:12;;;;;;;8.02;5.25;;;;;;;23.53;59.94;93064.47;4728836;30;20083;-96
2022/07/01 02:17:38;;;;;;;5.95;5.18;;;;;;;23.53;59.56;93074.78;4662942;30;20131;-96
2022/07/01 02:20:04;;;;;;;5.63;5.03;;;;;;;23.54;59.72;93067.97;4679184;30;20408;-96
2022/07/01 02:22:32;;;;;;;5.80;4.82;;;;;;;23.53;59.80;93075.50;4684145;30;20442;-96
2022/07/01 02:24:58;;;;;;;5.45;4.88;;;;;;;23.52;59.70;93079.56;4669473;30;20281;-96
2022/07/01 02:27:23;;;;;;;4.70;4.00;;;;;;;23.53;59.49;93094.81;4692038;30;20055;-95
2022/07/01 02:29:52;;;;;;;5.15;4.38;;;;;;;23.52;59.35;93107.16;4706392;30;20055;-96
2022/07/01 02:32:18;;;;;;;4.93;4.43;;;;;;;23.53;59.50;93108.63;4685112;30;20085;-96
2022/07/01 02:34:44;;;;;;;5.63;4.50;;;;;;;23.51;59.67;93107.66;4686061;30;20189;-96
2022/07/01 02:37:09;;;;;;;5.78;4.90;;;;;;;23.52;59.81;93107.16;4685035;30;20052;-96
2022/07/01 02:39:35;;;;;;;5.20;4.70;;;;;;;23.51;59.62;93118.69;4679633;30;20070;-96
2022/07/01 02:44:44;;;;;;;5.43;4.15;;;;;;;23.51;59.52;93138.00;4694572;30;20110;-96
2022/07/01 02:47:12;;;;;;;5.15;4.40;;;;;;;23.53;59.74;93132.72;4684439;30;20056;-96
2022/07/01 02:49:39;;;;;;;6.22;4.82;;;;;;;23.51;59.26;93141.50;4665646;30;20096;-95
2022/07/01 02:52:05;;;;;;;4.50;3.97;;;;;;;23.50;59.61;93151.06;4680665;30;20193;-95
2022/07/01 02:54:30;;;;;;;4.97;4.30;;;;;;;23.51;59.45;93149.06;4663630;30;20059;-95
2022/07/01 02:56:56;;;;;;;5.10;4.50;;;;;;;23.51;59.71;93143.53;4681903;30;20115;-96
2022/07/01 02:59:27;;;;;;;5.55;4.60;;;;;;;23.48;59.57;93142.63;4711124;30;20511;-96
2022/07/01 03:01:52;;;;;;;5.35;4.45;;;;;;;23.50;59.84;93161.38;4678953;30;20049;-96
2022/07/01 03:04:20;;;;;;;7.10;4.10;;;;;;;23.49;59.64;93155.13;4665002;30;20461;-96
2022/07/01 03:06:46;;;;;;;5.35;4.32;;;;;;;23.49;59.52;93144.09;4670513;30;20063;-95
2022/07/01 03:09:12;;;;;;;5.13;4.32;;;;;;;23.49;59.53;93155.13;4684188;30;20057;-95
2022/07/01 03:11:41;;;;;;;5.38;3.90;;;;;;;23.49;59.71;93144.09;4681845;30;20642;-96
2022/07/01 03:14:06;;;;;;;5.80;4.65;;;;;;;23.50;59.68;93144.81;4705501;30;20051;-95
2022/07/01 03:16:32;;;;;;;6.72;4.50;;;;;;;23.48;59.66;93156.41;4687221;30;20611;-95
2022/07/01 03:18:57;;;;;;;5.53;4.05;;;;;;;23.49;59.56;93157.16;4652774;30;20052;-96
2022/07/01 03:21:23;;;;;;;4.88;4.38;;;;;;;23.48;59.65;93164.69;4664744;30;20055;-95
2022/07/01 03:23:48;;;;;;;5.35;4.30;;;;;;;23.48;59.59;93167.44;4656478;30;20142;-96
2022/07/01 03:26:14;;;;;;;4.18;3.78;;;;;;;23.49;59.56;93168.91;4682410;30;20056;-96
2022/07/01 03:28:40;;;;;;;4.43;3.53;;;;;;;23.49;59.68;93173.69;4691129;30;20612;-96
2022/07/01 03:31:06;;;;;;;5.10;4.05;;;;;;;23.48;59.32;93169.47;4686960;30;20385;-96
2022/07/01 03:33:31;;;;;;;5.40;4.07;;;;;;;23.49;58.99;93182.72;4669550;30;20609;-95
2022/07/01 03:35:57;;;;;;;4.80;3.75;;;;;;;23.49;59.02;93202.03;4683990;30;20083;-96
2022/07/01 03:38:22;;;;;;;4.35;3.85;;;;;;;23.50;59.16;93214.53;4695851;30;20048;-96
2022/07/01 03:40:50;;;;;;;4.80;4.00;;;;;;;23.53;59.47;93212.72;4696511;30;20063;-96
2022/07/01 03:43:16;;;;;;;4.10;3.45;;;;;;;23.57;58.70;93213.84;4672755;30;20044;-95
2022/07/01 03:45:41;;;;;;;4.38;3.97;;;;;;;23.56;59.07;93230.94;4691018;30;20095;-96
2022/07/01 03:48:07;;;;;;;4.18;3.60;;;;;;;23.56;58.94;93234.44;4726341;29;20650;-96
2022/07/01 03:50:32;;;;;;;3.83;3.38;;;;;;;23.57;58.94;93238.69;4722696;29;20055;-96
2022/07/01 03:55:42;;;;;;;4.85;3.92;;;;;;;23.57;59.02;93243.47;4740826;29;20096;-96
2022/07/01 03:58:10;;;;;;;4.55;3.80;;;;;;;23.58;59.11;93251.19;4739501;29;20560;-96
2022/07/01 04:00:36;;;;;;;4.05;3.60;;;;;;;23.57;59.16;93249.72;4733602;29;20293;-95
2022/07/01 04:03:02;;;;;;;4.22;3.20;;;;;;;23.56;58.91;93259.28;4708421;29;20109;-96
2022/07/01 04:05:28;;;;;;;4.70;3.90;;;;;;;23.55;59.07;93257.81;4738075;29;20051;-95
2022/07/01 04:07:53;;;;;;;4.47;4.07;;;;;;;23.56;59.15;93264.06;4724261;29;20082;-96
2022/07/01 04:10:19;;;;;;;5.50;4.90;;;;;;;23.56;59.19;93261.31;4737762;29;20043;-96
2022/07/01 04:12:44;;;;;;;4.10;3.22;;;;;;;23.56;59.04;93270.31;4739004;29;20047;-96
2022/07/01 04:15:10;;;;;;;3.65;3.35;;;;;;;23.55;59.25;93274.38;4730115;29;20043;-96
2022/07/01 04:17:36;;;;;;;5.20;3.55;;;;;;;23.56;59.35;93266.81;4737069;29;20042;-96
2022/07/01 04:20:02;;;;;;;4.30;3.67;;;;;;;23.58;59.16;93283.56;4736641;29;20059;-95
2022/07/01 04:22:33;;;;;;;4.95;3.78;;;;;;;23.55;59.09;93265.34;4737443;29;20059;-96
2022/07/01 04:25:00;;;;;;;4.00;3.30;;;;;;;23.55;59.17;93287.41;4719612;30;20332;-96
2022/07/01 04:27:26;;;;;;;5.07;3.85;;;;;;;23.57;59.26;93285.59;4724264;29;20333;-96
2022/07/01 04:29:54;;;;;;;4.72;3.50;;;;;;;23.60;59.07;93283.75;4741097;30;20051;-96
2022/07/01 04:32:20;;;;;;;3.17;2.88;;;;;;;23.62;58.96;93294.97;4736888;29;20044;-95
2022/07/01 04:34:45;;;;;;;2.95;2.63;;;;;;;23.57;59.19;93287.63;4754306;30;20586;-96
2022/07/01 04:37:12;;;;;;;3.55;2.80;;;;;;;23.56;58.96;93295.16;4737435;29;20047;-96
2022/07/01 04:39:39;;;;;;;4.05;3.10;;;;;;;23.57;59.06;93299.38;4717916;30;20047;-96
2022/07/01 04:42:05;;;;;;;4.20;2.80;;;;;;;23.55;58.97;93303.97;4689117;30;20056;-96
2022/07/01 04:44:32;;;;;;;3.10;2.80;;;;;;;23.58;59.09;93305.66;4708893;30;20058;-96
2022/07/01 04:46:58;;;;;;;3.13;2.30;;;;;;;23.58;58.97;93308.41;4689227;30;20833;-95
2022/07/01 04:49:24;;;;;;;4.13;2.63;;;;;;;23.61;58.80;93299.00;4684600;30;20711;-96
2022/07/01 04:51:50;;;;;;;2.70;2.40;;;;;;;23.61;58.99;93306.56;4688013;30;20052;-96
2022/07/01 04:54:15;;;;;;;4.38;2.35;;;;;;;23.66;58.90;93302.88;4679944;30;20536;-95
2022/07/01 04:56:41;;;;;;;3.80;2.65;;;;;;;23.62;58.87;93306.00;4678740;30;20063;-95
2022/07/01 04:59:06;;;;;;;3.25;2.53;;;;;;;23.62;58.97;93311.53;4684177;30;20052;-96
2022/07/01 05:01:32;;;;;;;2.42;2.15;;;;;;;23.64;58.77;93311.72;4711082;30;20093;-96
2022/07/01 05:03:57;;;;;;;2.55;2.13;;;;;;;23.64;58.58;93322.03;4705543;30;20083;-95
2022/07/01 05:06:34;;;;;;;2.47;2.28;;;;;;;23.64;58.90;93322.03;4714519;30;20998;-96
2022/07/01 05:15:44;;;;;;;;;;;;;;;;;;;;;
2022/07/01 07:11:10;;;;;;;1.23;1.13;;;;;;;23.54;58.62;93383.25;4915841;24;20056;-96
2022/07/01 07:21:28;;;;;;;;;;;;;;;;;;;;;
2022/07/01 07:32:30;;;;;;;12.38;2.55;;;;;;;23.58;58.54;93367.09;5030691;24;20993;-96
2022/07/01 07:35:38;;;;;;;17.48;2.70;;;;;;;23.65;59.69;93373.16;4751514;30;20068;-96
2022/07/01 07:38:10;;;;;;;7.70;2.13;;;;;;;23.64;58.75;93372.44;4766930;24;20062;-96
2022/07/01 07:40:45;;;;;;;4.05;1.90;;;;;;;23.67;58.38;93374.09;4738836;30;20056;-95
2022/07/01 07:43:18;;;;;;;9.43;2.20;;;;;;;23.66;58.39;93364.34;4705807;29;20056;-93
2022/07/01 07:46:05;;;;;;;3.05;1.45;;;;;;;23.63;58.34;93375.75;4732126;30;20108;-95
2022/07/01 07:48:43;;;;;;;3.25;1.50;;;;;;;23.66;58.16;93380.16;4910164;24;20196;-96
2022/07/01 07:51:33;;;;;;;5.13;1.58;;;;;;;23.63;58.47;93382.00;4751786;29;20124;-96
2022/07/01 07:54:12;;;;;;;8.50;1.50;;;;;;;23.64;58.46;93377.94;4746398;29;20639;-95
2022/07/01 07:56:49;;;;;;;2.20;1.35;;;;;;;23.65;58.32;93373.91;4779705;24;20138;-96
2022/07/01 07:59:15;;;;;;;5.28;1.48;;;;;;;23.64;58.47;93375.19;4765182;29;20443;-95
2022/07/01 08:01:42;;;;;;;3.53;1.70;;;;;;;23.66;58.28;93369.88;4770386;30;20049;-95
2022/07/01 08:04:30;;;;;;;1.83;1.30;;;;;;;23.63;58.40;93370.97;4748546;29;20047;-96
2022/07/01 08:07:09;;;;;;;1.70;1.45;;;;;;;23.65;58.23;93379.44;4689571;30;20056;-96
2022/07/01 08:09:47;;;;;;;3.00;1.70;;;;;;;23.64;58.61;93393.78;4693744;30;20052;-96
2022/07/01 08:12:51;;;;;;;5.28;1.70;;;;;;;23.64;58.52;93399.28;4684671;30;20059;-96
2022/07/01 08:15:48;;;;;;;4.93;1.90;;;;;;;23.68;58.29;93394.91;4686858;30;20044;-96
2022/07/01 08:18:42;;;;;;;9.88;2.13;;;;;;;23.66;58.34;93397.47;4687000;30;20055;-96
2022/07/01 08:21:23;;;;;;;4.63;1.83;;;;;;;23.66;58.34;93405.00;4676595;30;20076;-95
2022/07/01 08:23:58;;;;;;;3.45;1.45;;;;;;;23.69;58.24;93392.88;4707753;30;20060;-95
2022/07/01 08:26:27;;;;;;;5.45;1.77;;;;;;;23.70;58.28;93397.84;4675447;30;20105;-95
2022/07/01 08:28:56;;;;;;;3.42;1.50;;;;;;;23.69;58.30;93390.84;4662816;30;20395;-96
2022/07/01 08:31:31;;;;;;;6.30;1.98;;;;;;;23.72;58.19;93391.78;4654268;30;20514;-96
2022/07/01 08:33:58;;;;;;;21.10;4.50;;;;;;;23.75;57.90;93387.94;4676617;30;20046;-95
2022/07/01 08:36:24;;;;;;;34.95;8.15;;;;;;;23.71;58.07;93390.31;4677406;30;20994;-96
2022/07/01 08:38:50;;;;;;;31.35;8.15;;;;;;;23.72;58.08;93395.28;4655895;30;20061;-96
2022/07/01 08:41:17;;;;;;;72.10;16.08;;;;;;;23.70;58.23;93395.09;4689355;30;20183;-96
2022/07/01 08:43:43;;;;;;;80.32;17.63;;;;;;;23.71;58.12;93393.81;4684935;30;20143;-96
2022/07/01 08:46:08;;;;;;;54.08;11.82;;;;;;;23.73;58.15;93396.03;4674635;30;20221;-96
2022/07/01 08:48:34;;;;;;;57.47;12.82;;;;;;;23.78;58.05;93397.91;4701663;30;20050;-96
2022/07/01 08:51:03;;;;;;;51.22;10.75;;;;;;;23.76;57.99;93401.19;4700349;30;20060;-96
2022/07/01 08:53:30;;;;;;;68.03;14.32;;;;;;;23.75;58.22;93402.47;4737902;30;20373;-96
2022/07/01 08:58:39;;;;;;;103.10;25.48;;;;;;;23.76;58.32;93389.41;4719307;30;20125;-94
2022/07/01 09:01:14;;;;;;;56.28;12.80;;;;;;;23.78;58.08;93404.16;4716448;30;20052;-93
2022/07/01 09:03:44;;;;;;;53.75;14.48;;;;;;;23.82;57.89;93401.00;4750007;30;20046;-96
2022/07/01 09:06:28;;;;;;;77.38;18.70;;;;;;;23.81;58.18;93403.06;4738606;30;20056;-95
2022/07/01 09:09:13;;;;;;;114.35;39.72;;;;;;;23.80;58.42;93400.84;4716149;30;20142;-96
2022/07/01 09:11:53;;;;;;;89.78;24.23;;;;;;;23.79;58.08;93405.63;4701765;30;20079;-95
2022/07/01 09:14:28;;;;;;;105.20;30.38;;;;;;;23.80;57.94;93400.84;4692279;30;20048;-96
2022/07/01 09:16:55;;;;;;;98.05;24.52;;;;;;;23.85;57.95;93397.91;4691833;30;20044;-94
2022/07/01 09:19:21;;;;;;;83.03;29.42;;;;;;;23.86;57.97;93401.41;4699229;30;20048;-94
2022/07/01 09:21:49;;;;;;;115.07;65.18;;;;;;;23.82;58.49;93395.50;4695281;30;20053;-94
2022/07/01 09:24:29;;;;;;;51.55;13.88;;;;;;;23.73;58.13;93387.75;4678441;30;20049;-94
2022/07/01 09:26:57;;;;;;;33.65;11.00;;;;;;;23.70;57.44;93392.34;4647846;30;20080;-93
2022/07/01 09:29:31;;;;;;;24.67;9.65;;;;;;;23.69;57.66;93390.84;4650287;30;20058;-94
2022/07/01 09:31:58;;;;;;;30.35;10.07;;;;;;;23.64;57.73;93391.00;4666786;30;20050;-94
2022/07/01 09:34:25;;;;;;;16.10;9.90;;;;;;;23.63;57.38;93392.28;4682556;30;20088;-94
2022/07/01 09:36:54;;;;;;;19.40;10.25;;;;;;;23.61;57.49;93390.06;4696857;30;20049;-95
2022/07/01 09:39:20;;;;;;;21.73;9.45;;;;;;;23.62;57.47;93386.03;4674746;30;20081;-96
2022/07/01 09:41:46;;;;;;;23.38;9.98;;;;;;;23.61;57.26;93390.06;4678741;30;20069;-96
2022/07/01 09:44:16;;;;;;;15.48;8.93;;;;;;;23.66;57.39;93385.69;4654561;30;20057;-96
2022/07/01 09:46:56;;;;;;;28.42;10.15;;;;;;;23.64;57.51;93391.00;4686651;30;20065;-96
2022/07/01 09:49:22;;;;;;;19.92;9.55;;;;;;;23.66;57.54;93385.69;4682576;30;20076;-95
2022/07/01 09:51:49;;;;;;;19.95;10.63;;;;;;;23.71;57.62;93385.53;4691847;30;20421;-96
2022/07/01 09:54:32;;;;;;;31.95;11.50;;;;;;;23.70;57.76;93392.34;4685673;30;20052;-96
2022/07/01 09:56:58;;;;;;;57.25;16.83;;;;;;;23.71;57.85;93385.53;4690920;30;20077;-96
2022/07/01 09:59:36;;;;;;;87.13;23.92;;;;;;;23.70;57.63;93375.78;4726903;30;20132;-96
2022/07/01 10:02:04;;;;;;;127.57;34.53;;;;;;;23.71;57.96;93371.72;4728846;30;20115;-96
2022/07/01 10:04:53;;;;;;;50.17;15.85;;;;;;;23.74;57.56;93378.91;4736655;30;20083;-95
2022/07/01 10:07:52;;;;;;;43.60;16.50;;;;;;;23.74;57.65;93378.19;4715355;30;20370;-96
2022/07/01 10:10:42;;;;;;;45.90;14.48;;;;;;;23.76;57.64;93381.13;4741077;29;20550;-95
2022/07/01 10:13:23;;;;;;;34.08;13.25;;;;;;;23.76;57.67;93375.63;4785500;29;20059;-95
2022/07/01 10:15:49;;;;;;;39.58;13.50;;;;;;;23.82;57.41;93373.41;4768138;29;20046;-95
2022/07/01 10:18:25;;;;;;;37.15;13.15;;;;;;;23.77;57.62;93375.06;4739481;29;20380;-95
2022/07/01 10:20:51;;;;;;;39.45;12.93;;;;;;;23.81;57.60;93383.75;4724295;29;20275;-95
2022/07/01 10:23:19;;;;;;;31.63;12.20;;;;;;;23.81;57.55;93383.00;4724893;29;20055;-95
2022/07/01 10:25:45;;;;;;;34.15;11.45;;;;;;;23.79;57.48;93385.56;4735992;29;20055;-95
2022/07/01 10:28:24;;;;;;;32.95;12.00;;;;;;;23.79;57.62;93394.59;4752827;29;20078;-95
2022/07/01 10:30:53;;;;;;;34.20;10.18;;;;;;;23.82;57.43;93396.22;4752301;29;20063;-95
2022/07/01 10:33:38;;;;;;;23.63;9.13;;;;;;;23.78;57.31;93397.91;4741012;29;20053;-94
2022/07/01 10:36:19;;;;;;;29.42;11.25;;;;;;;23.80;57.66;93401.59;4751378;29;20057;-94
2022/07/01 10:39:00;;;;;;;;;;;;;;;23.77;57.59;93397.16;4770098;29;20055;-94
2022/07/01 10:41:27;;;;;;;23.15;10.05;;;;;;;23.80;57.63;93393.31;4765538;29;21282;-94
2022/07/01 10:43:57;;;;;;;32.35;9.80;;;;;;;23.79;57.58;93391.81;4743637;29;20084;-95
2022/07/01 10:46:43;;;;;;;20.42;9.05;;;;;;;23.79;57.74;93402.13;4747873;29;20050;-95
2022/07/01 10:49:09;;;;;;;23.33;7.65;;;;;;;23.82;57.65;93401.75;4754300;29;20471;-95
2022/07/01 10:51:51;;;;;;;26.52;10.00;;;;;;;23.81;57.64;93402.31;4738987;29;20055;-95
2022/07/01 10:57:19;;;;;;;21.98;8.80;;;;;;;23.80;57.71;93398.81;4768921;29;20086;-94
2022/07/01 10:59:59;;;;;;;19.20;8.27;;;;;;;23.83;57.60;93396.97;4768154;29;20834;-95
2022/07/01 11:02:25;;;;;;;;;;;;;;;23.78;57.69;93404.16;4765863;29;20050;-96
2022/07/01 11:04:51;;;;;;;18.33;7.78;;;;;;;23.82;57.60;93398.25;4770209;29;19972;-94
2022/07/01 11:07:17;;;;;;;16.70;7.97;;;;;;;23.82;57.64;93403.78;4737133;29;20491;-94
2022/07/01 11:09:43;;;;;;;14.65;7.10;;;;;;;23.80;57.60;93396.06;4737717;29;20086;-95
2022/07/01 11:12:09;;;;;;;15.02;7.05;;;;;;;23.81;57.83;93394.03;4736946;29;20466;-95
2022/07/01 11:14:38;;;;;;;14.88;7.57;;;;;;;23.84;57.67;93398.44;4749731;29;20080;-95
2022/07/01 11:17:04;;;;;;;16.77;6.82;;;;;;;23.84;57.40;93401.94;4770071;29;20080;-95
2022/07/01 11:19:30;;;;;;;18.15;7.32;;;;;;;23.88;57.33;93396.06;4771492;29;20044;-95
2022/07/01 11:21:56;;;;;;;11.10;5.32;;;;;;;23.87;57.55;93397.34;4751411;29;20503;-94
2022/07/01 11:24:22;;;;;;;16.70;6.85;;;;;;;23.83;57.53;93396.97;4770297;29;22635;-95
2022/07/01 11:26:48;;;;;;;11.90;5.70;;;;;;;23.84;57.62;93392.94;4752362;29;20039;-95
2022/07/01 11:29:14;;;;;;;17.15;7.15;;;;;;;23.86;57.64;93384.84;4754680;29;20434;-94
2022/07/01 11:31:39;;;;;;;14.02;6.28;;;;;;;23.86;57.56;93380.06;4754251;29;20288;-93
2022/07/01 11:34:05;;;;;;;12.77;6.20;;;;;;;23.86;57.55;93380.06;4755910;29;20051;-95
2022/07/01 11:39:22;;;;;;;13.20;6.15;;;;;;;23.87;57.56;93384.28;4774278;29;20066;-94
2022/07/01 11:41:54;;;;;;;12.98;5.93;;;;;;;23.85;57.53;93372.31;4755311;29;20051;-95
2022/07/01 11:44:38;;;;;;;11.30;5.43;;;;;;;23.86;57.33;93376.56;4765649;29;20035;-94
2022/07/01 11:47:10;;;;;;;8.85;4.68;;;;;;;23.92;57.22;93375.09;4773264;29;20837;-96
2022/07/01 11:49:44;;;;;;;11.10;4.93;;;;;;;23.87;57.67;93378.78;4756263;29;20131;-94
2022/07/01 11:52:10;;;;;;;9.82;4.68;;;;;;;23.90;57.43;93376.94;4766994;29;20050;-94
2022/07/01 11:54:37;;;;;;;8.55;4.97;;;;;;;23.89;57.55;93380.97;4753760;29;20047;-94
2022/07/01 11:57:19;;;;;;;9.75;4.55;;;;;;;23.88;57.49;93385.78;4737551;30;20056;-94
2022/07/01 11:59:48;;;;;;;11.75;5.30;;;;;;;23.91;57.61;93394.97;4764773;30;20079;-94
2022/07/01 12:02:14;;;;;;;9.88;4.68;;;;;;;23.92;57.47;93385.41;4750057;30;20054;-95
2022/07/01 12:04:40;;;;;;;10.55;4.68;;;;;;;23.95;57.34;93386.34;4732549;30;20086;-95
2022/07/01 12:07:06;;;;;;;10.82;4.85;;;;;;;23.97;57.18;93378.25;4690458;30;20044;-95
2022/07/01 12:09:31;;;;;;;11.77;5.18;;;;;;;23.97;57.17;93387.28;4703004;30;20047;-94
2022/07/01 12:11:57;;;;;;;7.22;3.45;;;;;;;23.97;57.63;93387.28;4703641;30;20244;-95
2022/07/01 12:14:25;;;;;;;7.20;4.25;;;;;;;23.93;57.45;93389.66;4714223;30;20130;-94
2022/07/01 12:16:54;;;;;;;8.85;4.07;;;;;;;23.96;57.43;93396.09;4724956;30;20051;-94
2022/07/01 12:19:20;;;;;;;6.13;4.05;;;;;;;23.97;57.48;93395.56;4703527;30;20152;-95
2022/07/01 12:21:53;;;;;;;7.88;3.85;;;;;;;23.97;57.32;93394.81;4702478;30;20535;-95
2022/07/01 12:24:21;;;;;;;8.68;3.75;;;;;;;23.99;57.23;93389.50;4703262;30;20048;-96
2022/07/01 12:26:49;;;;;;;5.60;3.58;;;;;;;23.93;57.50;93398.69;4704445;30;20575;-94
2022/07/01 12:29:17;;;;;;;5.65;3.42;;;;;;;23.94;57.50;93402.19;4731841;30;20052;-94
2022/07/01 12:31:43;;;;;;;8.50;4.05;;;;;;;23.98;57.37;93393.53;4704090;30;20050;-94
2022/07/01 12:34:08;;;;;;;4.95;3.13;;;;;;;23.98;57.53;93394.28;4685586;30;20049;-94
2022/07/01 12:36:34;;;;;;;7.05;3.97;;;;;;;23.99;57.67;93400.53;4716126;30;20461;-95
2022/07/01 12:39:01;;;;;;;7.78;3.72;;;;;;;24.00;57.45;93393.72;4719485;30;20048;-95
2022/07/01 12:41:34;;;;;;;5.57;3.10;;;;;;;23.97;57.62;93390.03;4732840;30;20059;-95
2022/07/01 12:44:01;;;;;;;5.18;2.90;;;;;;;23.95;57.63;93392.59;4736735;30;20186;-94
2022/07/01 12:46:30;;;;;;;6.28;3.17;;;;;;;23.99;57.38;93395.00;4740906;30;20054;-95
2022/07/01 12:48:56;;;;;;;5.15;3.15;;;;;;;24.00;57.33;93399.25;4734829;30;20052;-94
2022/07/01 12:51:27;;;;;;;5.43;2.70;;;;;;;24.02;57.34;93402.22;4721287;30;20050;-94
2022/07/01 12:53:53;;;;;;;6.72;3.38;;;;;;;23.96;57.55;93401.63;4736050;30;20048;-94
2022/07/01 12:56:22;;;;;;;4.40;3.15;;;;;;;23.95;57.42;93409.16;4747275;30;20055;-94
2022/07/01 12:58:48;;;;;;;4.88;3.03;;;;;;;24.00;57.46;93410.28;4719534;30;20504;-94
2022/07/01 13:01:14;;;;;;;4.50;2.70;;;;;;;24.01;57.30;93407.00;4746439;30;20139;-95
2022/07/01 13:03:39;;;;;;;5.72;2.92;;;;;;;23.99;57.51;93419.88;4735110;30;20055;-95
2022/07/01 13:06:04;;;;;;;5.20;2.95;;;;;;;23.97;57.31;93420.41;4722878;30;20075;-94
2022/07/01 13:08:30;;;;;;;9.48;3.00;;;;;;;23.98;57.24;93419.13;4709897;30;20210;-94
2022/07/01 13:10:55;;;;;;;5.07;3.22;;;;;;;23.97;57.13;93419.69;4710016;30;20045;-94
2022/07/01 13:13:21;;;;;;;5.05;2.83;;;;;;;24.00;57.30;93413.78;4717833;30;20238;-94
2022/07/01 13:15:47;;;;;;;6.88;3.67;;;;;;;23.97;57.30;93406.59;4712521;30;20056;-94
2022/07/01 13:18:15;;;;;;;7.13;4.53;;;;;;;23.94;57.45;93413.22;4718216;30;20135;-94
2022/07/01 13:20:43;;;;;;;5.20;3.60;;;;;;;23.99;57.25;93408.81;4698344;30;20582;-94
2022/07/01 13:23:08;;;;;;;24.17;5.85;;;;;;;23.97;57.45;93403.84;4730080;30;20444;-94
2022/07/01 13:25:34;;;;;;;15.82;5.22;;;;;;;23.95;57.53;93411.19;4718346;30;20040;-94
2022/07/01 13:27:59;;;;;;;13.60;6.03;;;;;;;23.95;57.63;93409.16;4716435;30;20122;-94
2022/07/01 13:30:36;;;;;;;27.48;6.18;;;;;;;23.92;57.59;93404.75;4715154;30;20192;-94
2022/07/01 13:33:02;;;;;;;17.45;6.35;;;;;;;23.96;57.58;93399.59;4748201;30;20055;-94
2022/07/01 13:35:28;;;;;;;21.70;8.35;;;;;;;23.96;57.46;93391.31;4728272;30;20077;-95
2022/07/01 13:37:53;;;;;;;25.50;10.80;;;;;;;23.94;57.47;93396.66;4746772;30;20104;-94
2022/07/01 13:40:28;;;;;;;21.50;11.25;;;;;;;23.94;57.50;93391.13;4701676;30;20079;-93
2022/07/01 13:42:53;;;;;;;25.50;11.35;;;;;;;23.95;57.96;93391.88;4743653;30;20028;-94
2022/07/01 13:45:24;;;;;;;25.65;10.63;;;;;;;23.95;57.63;93389.84;4744489;30;20055;-94
2022/07/01 13:47:49;;;;;;;;;;;;;;;23.91;57.51;93409.53;4727951;30;20048;-94
2022/07/01 13:50:18;;;;;;;17.90;7.95;;;;;;;23.95;57.56;93405.69;4745531;30;19926;-94
2022/07/01 13:52:45;;;;;;;12.00;7.15;;;;;;;23.96;57.61;93409.91;4746959;30;20047;-92
2022/07/01 13:55:10;;;;;;;14.88;7.28;;;;;;;23.95;57.53;93417.47;4722873;30;20040;-93
2022/07/01 13:57:36;;;;;;;14.23;7.22;;;;;;;23.95;57.58;93422.97;4715425;30;20055;-94
2022/07/01 14:00:02;;;;;;;17.42;6.60;;;;;;;23.95;57.40;93425.75;4730534;30;20064;-92
2022/07/01 14:02:28;;;;;;;13.15;5.75;;;;;;;23.98;57.63;93427.41;4707754;30;20060;-94
2022/07/01 14:04:54;;;;;;;13.77;6.30;;;;;;;23.96;57.71;93429.97;4711781;30;20049;-93
2022/07/01 14:07:22;;;;;;;10.38;6.95;;;;;;;23.95;57.39;93428.50;4714899;30;20123;-94
2022/07/01 14:09:48;;;;;;;10.05;5.55;;;;;;;23.96;57.69;93429.97;4688141;30;20164;-95